Andrews A F B, District of Columbia
Current Conditions -  °F | °C
As of 2:58 PM on Saturday 25 Oct 2014 (Local Time) from KADW Reporting Station
Clear Clear  
Wind Chill: 70°   Ceiling: Unl
Heat Index: 70°   Visibility: 10mi
Dew Point: 44°   Wind: 13mph
Humidity: 39%   Direction: 220°SW
Pressure: 29.82"   Gusts: NA
Location:  38.8022°N, 76.8857°W
Report Text: KADW 251858Z AUTO 22011KT 10SM CLR 21/07 A2982 RMK AO2 SLP104 T02130069 $
Loading
Personal Weather Stations






























Interactive Weather Map
Tropical Storm Tracking
New forecast layout! Learn more

10-Day Weather Forecast

Advertisements
Track Severe Weather on mobile